sensor_id;sensor_type;location;lat;lon;timestamp;pressure;altitude;pressure_sealevel;temperature;humidity
42601;BME280;28229;48.856;9.088;2023-09-19T00:00:46;97554.28;;;16.65;92.62
42601;BME280;28229;48.856;9.088;2023-09-19T00:03:13;97550.81;;;16.59;93.24
42601;BME280;28229;48.856;9.088;2023-09-19T00:05:39;97545.50;;;16.59;93.72
42601;BME280;28229;48.856;9.088;2023-09-19T00:08:05;97556.69;;;16.56;93.89
42601;BME280;28229;48.856;9.088;2023-09-19T00:10:34;97557.75;;;16.60;93.13
42601;BME280;28229;48.856;9.088;2023-09-19T00:13:05;97558.25;;;16.62;93.19
42601;BME280;28229;48.856;9.088;2023-09-19T00:15:39;97566.75;;;16.59;93.23
42601;BME280;28229;48.856;9.088;2023-09-19T00:18:07;97571.53;;;16.57;93.98
42601;BME280;28229;48.856;9.088;2023-09-19T00:20:35;97574.19;;;16.57;94.16
42601;BME280;28229;48.856;9.088;2023-09-19T00:23:02;97577.13;;;16.61;94.03
42601;BME280;28229;48.856;9.088;2023-09-19T00:25:31;97582.69;;;16.54;94.07
42601;BME280;28229;48.856;9.088;2023-09-19T00:28:01;97580.84;;;16.54;94.63
42601;BME280;28229;48.856;9.088;2023-09-19T00:30:28;97581.38;;;16.56;94.19
42601;BME280;28229;48.856;9.088;2023-09-19T00:32:54;97574.72;;;16.54;94.63
42601;BME280;28229;48.856;9.088;2023-09-19T00:35:21;97576.06;;;16.51;94.42
42601;BME280;28229;48.856;9.088;2023-09-19T00:37:51;97573.13;;;16.53;94.49
42601;BME280;28229;48.856;9.088;2023-09-19T00:40:18;97578.97;;;16.55;94.36
42601;BME280;28229;48.856;9.088;2023-09-19T00:42:46;97583.75;;;16.53;94.49
42601;BME280;28229;48.856;9.088;2023-09-19T00:45:14;97587.47;;;16.52;94.21
42601;BME280;28229;48.856;9.088;2023-09-19T00:47:42;97589.59;;;16.50;94.20
42601;BME280;28229;48.856;9.088;2023-09-19T00:50:10;97584.53;;;16.48;94.56
42601;BME280;28229;48.856;9.088;2023-09-19T00:52:42;97588.00;;;16.44;94.10
42601;BME280;28229;48.856;9.088;2023-09-19T00:55:09;97592.78;;;16.42;94.55
42601;BME280;28229;48.856;9.088;2023-09-19T00:57:36;97593.31;;;16.44;93.80
42601;BME280;28229;48.856;9.088;2023-09-19T01:00:08;97591.19;;;16.41;94.59
42601;BME280;28229;48.856;9.088;2023-09-19T01:02:38;97585.34;;;16.44;94.47
42601;BME280;28229;48.856;9.088;2023-09-19T01:05:04;97588.00;;;16.39;94.45
42601;BME280;28229;48.856;9.088;2023-09-19T01:07:32;97599.91;;;16.36;94.59
42601;BME280;28229;48.856;9.088;2023-09-19T01:10:06;97595.69;;;16.40;94.20
42601;BME280;28229;48.856;9.088;2023-09-19T01:15:43;97607.63;;;16.37;94.24
42601;BME280;28229;48.856;9.088;2023-09-19T01:23:25;97612.94;;;16.37;94.37
42601;BME280;28229;48.856;9.088;2023-09-19T01:28:51;97620.63;;;16.39;93.80
42601;BME280;28229;48.856;9.088;2023-09-19T01:31:21;97621.44;;;16.40;93.79
42601;BME280;28229;48.856;9.088;2023-09-19T01:33:57;97620.13;;;16.42;93.08
42601;BME280;28229;48.856;9.088;2023-09-19T01:36:30;97614.25;;;16.35;93.54
42601;BME280;28229;48.856;9.088;2023-09-19T01:38:57;97622.50;;;16.33;93.79
42601;BME280;28229;48.856;9.088;2023-09-19T01:41:33;97628.31;;;16.30;94.29
42601;BME280;28229;48.856;9.088;2023-09-19T01:44:05;97630.44;;;16.28;94.19
42601;BME280;28229;48.856;9.088;2023-09-19T01:46:34;97624.06;;;16.29;93.93
42601;BME280;28229;48.856;9.088;2023-09-19T01:49:22;97621.94;;;16.26;94.29
42601;BME280;28229;48.856;9.088;2023-09-19T01:51:59;97627.75;;;16.23;94.13
42601;BME280;28229;48.856;9.088;2023-09-19T01:54:40;97630.69;;;16.22;94.48
42601;BME280;28229;48.856;9.088;2023-09-19T01:57:16;97633.06;;;16.18;94.34
42601;BME280;28229;48.856;9.088;2023-09-19T01:59:50;97649.22;;;16.16;94.50
42601;BME280;28229;48.856;9.088;2023-09-19T02:02:18;97642.34;;;16.15;94.85
42601;BME280;28229;48.856;9.088;2023-09-19T02:04:48;97646.59;;;16.11;94.98
42601;BME280;28229;48.856;9.088;2023-09-19T02:07:14;97654.50;;;16.01;96.01
42601;BME280;28229;48.856;9.088;2023-09-19T02:09:41;97653.19;;;16.09;95.43
42601;BME280;28229;48.856;9.088;2023-09-19T02:12:09;97650.50;;;15.98;95.68
42601;BME280;28229;48.856;9.088;2023-09-19T02:14:35;97655.28;;;16.02;95.59
42601;BME280;28229;48.856;9.088;2023-09-19T02:17:03;97654.22;;;15.97;96.00
42601;BME280;28229;48.856;9.088;2023-09-19T02:19:33;97647.25;;;15.86;96.03
42601;BME280;28229;48.856;9.088;2023-09-19T02:22:00;97648.09;;;15.92;95.98
42601;BME280;28229;48.856;9.088;2023-09-19T02:24:29;97646.72;;;15.84;96.54
42601;BME280;28229;48.856;9.088;2023-09-19T02:26:55;97653.91;;;15.89;96.00
42601;BME280;28229;48.856;9.088;2023-09-19T02:29:21;97652.03;;;15.89;95.96
42601;BME280;28229;48.856;9.088;2023-09-19T02:31:48;97656.56;;;15.89;95.24
42601;BME280;28229;48.856;9.088;2023-09-19T02:34:15;97652.56;;;15.81;96.37
42601;BME280;28229;48.856;9.088;2023-09-19T02:36:43;97657.84;;;15.76;96.84
42601;BME280;28229;48.856;9.088;2023-09-19T02:39:10;97659.16;;;15.78;96.88
42601;BME280;28229;48.856;9.088;2023-09-19T02:41:37;97662.06;;;15.77;96.72
42601;BME280;28229;48.856;9.088;2023-09-19T02:44:04;97668.47;;;15.81;97.11
42601;BME280;28229;48.856;9.088;2023-09-19T02:46:34;97663.66;;;15.78;97.12
42601;BME280;28229;48.856;9.088;2023-09-19T02:49:03;97667.94;;;15.84;97.15
42601;BME280;28229;48.856;9.088;2023-09-19T02:51:33;97671.13;;;15.86;97.10
42601;BME280;28229;48.856;9.088;2023-09-19T02:53:59;97671.13;;;15.86;97.68
42601;BME280;28229;48.856;9.088;2023-09-19T02:56:26;97670.06;;;15.87;96.92
42601;BME280;28229;48.856;9.088;2023-09-19T02:58:52;97672.44;;;15.84;96.38
42601;BME280;28229;48.856;9.088;2023-09-19T03:01:19;97681.44;;;15.77;96.83
42601;BME280;28229;48.856;9.088;2023-09-19T03:03:45;97688.63;;;15.82;96.98
42601;BME280;28229;48.856;9.088;2023-09-19T03:06:11;97692.34;;;15.81;96.58
42601;BME280;28229;48.856;9.088;2023-09-19T03:08:40;97693.91;;;15.82;96.94
42601;BME280;28229;48.856;9.088;2023-09-19T03:11:11;97690.19;;;15.78;96.79
42601;BME280;28229;48.856;9.088;2023-09-19T03:13:40;97689.13;;;15.79;97.06
42601;BME280;28229;48.856;9.088;2023-09-19T03:16:08;97697.66;;;15.81;96.92
42601;BME280;28229;48.856;9.088;2023-09-19T03:18:35;97689.16;;;15.84;96.32
42601;BME280;28229;48.856;9.088;2023-09-19T03:21:22;97693.44;;;15.90;95.93
42601;BME280;28229;48.856;9.088;2023-09-19T03:23:48;97705.09;;;15.89;96.44
42601;BME280;28229;48.856;9.088;2023-09-19T03:26:15;97690.78;;;15.90;96.40
42601;BME280;28229;48.856;9.088;2023-09-19T03:28:43;97698.22;;;15.93;96.04
42601;BME280;28229;48.856;9.088;2023-09-19T03:31:10;97693.94;;;15.87;97.32
42601;BME280;28229;48.856;9.088;2023-09-19T03:33:37;97695.28;;;15.85;97.56
42601;BME280;28229;48.856;9.088;2023-09-19T03:36:04;97704.00;;;15.80;98.92
42601;BME280;28229;48.856;9.088;2023-09-19T03:38:31;97705.06;;;15.84;100.00
42601;BME280;28229;48.856;9.088;2023-09-19T03:40:58;97692.59;;;15.79;100.00
42601;BME280;28229;48.856;9.088;2023-09-19T03:43:25;97711.91;;;15.75;100.00
42601;BME280;28229;48.856;9.088;2023-09-19T03:45:53;97706.59;;;15.75;100.00
42601;BME280;28229;48.856;9.088;2023-09-19T03:48:20;97697.81;;;15.69;100.00
42601;BME280;28229;48.856;9.088;2023-09-19T03:50:47;97706.50;;;15.65;100.00
42601;BME280;28229;48.856;9.088;2023-09-19T03:53:14;97698.00;;;15.63;100.00
42601;BME280;28229;48.856;9.088;2023-09-19T03:55:44;97695.31;;;15.57;100.00
42601;BME280;28229;48.856;9.088;2023-09-19T03:58:10;97688.94;;;15.53;100.00
42601;BME280;28229;48.856;9.088;2023-09-19T04:00:38;97701.59;;;15.41;100.00
42601;BME280;28229;48.856;9.088;2023-09-19T04:03:06;97697.31;;;15.35;100.00
42601;BME280;28229;48.856;9.088;2023-09-19T04:05:32;97690.94;;;15.36;100.00
42601;BME280;28229;48.856;9.088;2023-09-19T04:08:00;97685.63;;;15.36;100.00
42601;BME280;28229;48.856;9.088;2023-09-19T04:10:27;97682.47;;;15.39;100.00
42601;BME280;28229;48.856;9.088;2023-09-19T04:12:55;97698.38;;;15.39;100.00
42601;BME280;28229;48.856;9.088;2023-09-19T04:15:23;97682.78;;;15.42;100.00
42601;BME280;28229;48.856;9.088;2023-09-19T04:17:54;97687.88;;;15.49;100.00
42601;BME280;28229;48.856;9.088;2023-09-19T04:20:20;97697.44;;;15.55;100.00
42601;BME280;28229;48.856;9.088;2023-09-19T04:22:48;97705.63;;;15.54;100.00
42601;BME280;28229;48.856;9.088;2023-09-19T04:25:15;97693.75;;;15.56;100.00
42601;BME280;28229;48.856;9.088;2023-09-19T04:27:41;97704.94;;;15.64;100.00
42601;BME280;28229;48.856;9.088;2023-09-19T04:30:08;97704.69;;;15.70;100.00
42601;BME280;28229;48.856;9.088;2023-09-19T04:32:41;97710.22;;;15.64;100.00
42601;BME280;28229;48.856;9.088;2023-09-19T04:35:08;97703.59;;;15.66;100.00
42601;BME280;28229;48.856;9.088;2023-09-19T04:37:39;97709.69;;;15.67;100.00
42601;BME280;28229;48.856;9.088;2023-09-19T04:40:07;97709.19;;;15.70;100.00
42601;BME280;28229;48.856;9.088;2023-09-19T04:42:43;97716.13;;;15.71;100.00
42601;BME280;28229;48.856;9.088;2023-09-19T04:45:10;97720.03;;;15.63;100.00
42601;BME280;28229;48.856;9.088;2023-09-19T04:47:38;97719.00;;;15.69;100.00
42601;BME280;28229;48.856;9.088;2023-09-19T04:50:07;97725.09;;;15.70;100.00
42601;BME280;28229;48.856;9.088;2023-09-19T04:52:39;97722.47;;;15.70;100.00
42601;BME280;28229;48.856;9.088;2023-09-19T04:55:15;97736.22;;;15.67;100.00
42601;BME280;28229;48.856;9.088;2023-09-19T05:03:39;97748.06;;;15.54;100.00
42601;BME280;28229;48.856;9.088;2023-09-19T05:06:21;97746.41;;;15.42;100.00
42601;BME280;28229;48.856;9.088;2023-09-19T05:08:50;97748.50;;;15.40;100.00
42601;BME280;28229;48.856;9.088;2023-09-19T05:11:21;97746.91;;;15.39;100.00
42601;BME280;28229;48.856;9.088;2023-09-19T05:13:48;97752.44;;;15.38;100.00
42601;BME280;28229;48.856;9.088;2023-09-19T05:16:23;97765.19;;;15.41;100.00
42601;BME280;28229;48.856;9.088;2023-09-19T05:55:46;97822.50;;;15.20;100.00
42601;BME280;28229;48.856;9.088;2023-09-19T06:01:29;97829.72;;;14.97;100.00
42601;BME280;28229;48.856;9.088;2023-09-19T06:04:10;97820.94;;;14.97;100.00
42601;BME280;28229;48.856;9.088;2023-09-19T06:06:36;97826.19;;;14.92;100.00
42601;BME280;28229;48.856;9.088;2023-09-19T06:26:40;97834.78;;;15.04;100.00
42601;BME280;28229;48.856;9.088;2023-09-19T06:29:11;97840.22;;;15.14;100.00
42601;BME280;28229;48.856;9.088;2023-09-19T06:31:40;97838.16;;;15.21;100.00
42601;BME280;28229;48.856;9.088;2023-09-19T06:34:08;97841.13;;;15.25;100.00
42601;BME280;28229;48.856;9.088;2023-09-19T06:36:37;97837.25;;;15.38;100.00
42601;BME280;28229;48.856;9.088;2023-09-19T08:39:17;97935.72;;;19.34;74.07
42601;BME280;28229;48.856;9.088;2023-09-19T08:42:21;97943.13;;;19.43;73.91
42601;BME280;28229;48.856;9.088;2023-09-19T08:44:52;97948.97;;;19.50;72.11
42601;BME280;28229;48.856;9.088;2023-09-19T09:40:10;97975.53;;;20.49;59.69
42601;BME280;28229;48.856;9.088;2023-09-19T09:42:43;97970.56;;;20.72;58.77
42601;BME280;28229;48.856;9.088;2023-09-19T09:45:22;97977.69;;;21.06;59.08
42601;BME280;28229;48.856;9.088;2023-09-19T09:47:54;97962.78;;;21.24;57.64
42601;BME280;28229;48.856;9.088;2023-09-19T09:50:31;97969.03;;;21.38;57.16
42601;BME280;28229;48.856;9.088;2023-09-19T09:53:28;97967.44;;;21.61;53.46
42601;BME280;28229;48.856;9.088;2023-09-19T09:58:38;97962.81;;;21.48;53.87
42601;BME280;28229;48.856;9.088;2023-09-19T10:01:06;97970.16;;;21.56;52.52
42601;BME280;28229;48.856;9.088;2023-09-19T10:03:40;97963.69;;;21.38;51.51
42601;BME280;28229;48.856;9.088;2023-09-19T10:06:11;97963.34;;;21.45;50.40
42601;BME280;28229;48.856;9.088;2023-09-19T10:09:01;97962.50;;;21.25;52.25
42601;BME280;28229;48.856;9.088;2023-09-19T10:11:45;97958.88;;;21.16;51.31
42601;BME280;28229;48.856;9.088;2023-09-19T10:14:13;97966.53;;;21.23;52.17
42601;BME280;28229;48.856;9.088;2023-09-19T10:16:45;97959.91;;;21.63;52.42
42601;BME280;28229;48.856;9.088;2023-09-19T10:19:23;97954.34;;;21.98;52.75
42601;BME280;28229;48.856;9.088;2023-09-19T10:21:53;97951.63;;;22.17;52.62
42601;BME280;28229;48.856;9.088;2023-09-19T10:24:21;97946.25;;;22.17;49.76
42601;BME280;28229;48.856;9.088;2023-09-19T10:26:49;97947.94;;;22.13;49.71
42601;BME280;28229;48.856;9.088;2023-09-19T10:29:17;97949.63;;;22.09;50.20
42601;BME280;28229;48.856;9.088;2023-09-19T10:31:47;97954.69;;;21.91;49.94
42601;BME280;28229;48.856;9.088;2023-09-19T10:34:14;97950.22;;;21.67;49.18
42601;BME280;28229;48.856;9.088;2023-09-19T10:36:44;97948.41;;;21.39;50.20
42601;BME280;28229;48.856;9.088;2023-09-19T10:39:14;97948.09;;;21.45;50.73
42601;BME280;28229;48.856;9.088;2023-09-19T10:41:50;97952.44;;;21.79;50.40
42601;BME280;28229;48.856;9.088;2023-09-19T10:44:26;97951.66;;;21.79;50.11
42601;BME280;28229;48.856;9.088;2023-09-19T10:46:52;97955.56;;;22.05;48.90
42601;BME280;28229;48.856;9.088;2023-09-19T10:49:25;97958.75;;;22.27;49.30
42601;BME280;28229;48.856;9.088;2023-09-19T10:51:56;97950.13;;;22.43;48.66
42601;BME280;28229;48.856;9.088;2023-09-19T10:54:32;97957.13;;;22.58;48.83
42601;BME280;28229;48.856;9.088;2023-09-19T10:57:03;97945.81;;;22.75;47.50
42601;BME280;28229;48.856;9.088;2023-09-19T10:59:31;97947.94;;;22.78;46.61
42601;BME280;28229;48.856;9.088;2023-09-19T11:02:16;97951.41;;;22.93;46.24
42601;BME280;28229;48.856;9.088;2023-09-19T11:04:43;97947.03;;;22.69;45.84
42601;BME280;28229;48.856;9.088;2023-09-19T11:07:12;97953.25;;;22.65;46.45
42601;BME280;28229;48.856;9.088;2023-09-19T11:09:50;97942.59;;;22.46;46.50
42601;BME280;28229;48.856;9.088;2023-09-19T11:15:00;97952.03;;;22.24;46.97
42601;BME280;28229;48.856;9.088;2023-09-19T11:30:45;97928.50;;;23.51;45.65
42601;BME280;28229;48.856;9.088;2023-09-19T11:33:19;97924.28;;;23.36;47.81
42601;BME280;28229;48.856;9.088;2023-09-19T11:49:28;97922.00;;;24.02;45.89
42601;BME280;28229;48.856;9.088;2023-09-19T11:52:00;97926.03;;;23.91;45.80
42601;BME280;28229;48.856;9.088;2023-09-19T11:54:27;97923.84;;;23.93;46.66
42601;BME280;28229;48.856;9.088;2023-09-19T11:56:59;97923.38;;;23.77;45.59
42601;BME280;28229;48.856;9.088;2023-09-19T11:59:30;97922.81;;;23.80;45.46
42601;BME280;28229;48.856;9.088;2023-09-19T12:01:58;97923.06;;;23.92;46.25
42601;BME280;28229;48.856;9.088;2023-09-19T12:04:38;97917.66;;;24.15;44.91
42601;BME280;28229;48.856;9.088;2023-09-19T12:07:07;97914.47;;;24.36;44.46
42601;BME280;28229;48.856;9.088;2023-09-19T12:09:39;97908.25;;;24.26;43.93
42601;BME280;28229;48.856;9.088;2023-09-19T12:12:07;97905.81;;;24.16;43.20
42601;BME280;28229;48.856;9.088;2023-09-19T12:14:33;97906.00;;;24.20;43.53
42601;BME280;28229;48.856;9.088;2023-09-19T12:16:59;97919.06;;;24.35;42.53
42601;BME280;28229;48.856;9.088;2023-09-19T12:19:27;97908.84;;;24.46;41.67
42601;BME280;28229;48.856;9.088;2023-09-19T12:21:56;97911.53;;;24.46;40.88
42601;BME280;28229;48.856;9.088;2023-09-19T12:24:27;97903.38;;;24.60;41.28
42601;BME280;28229;48.856;9.088;2023-09-19T12:27:06;97900.72;;;24.68;40.17
42601;BME280;28229;48.856;9.088;2023-09-19T12:29:43;97891.13;;;24.76;39.86
42601;BME280;28229;48.856;9.088;2023-09-19T12:32:10;97887.53;;;24.98;39.88
42601;BME280;28229;48.856;9.088;2023-09-19T12:34:36;97890.91;;;25.21;39.77
42601;BME280;28229;48.856;9.088;2023-09-19T12:37:14;97885.59;;;25.39;39.79
42601;BME280;28229;48.856;9.088;2023-09-19T12:39:50;97879.50;;;25.16;37.46
42601;BME280;28229;48.856;9.088;2023-09-19T12:42:20;97885.47;;;24.95;38.28
42601;BME280;28229;48.856;9.088;2023-09-19T12:44:51;97883.25;;;24.88;39.08
42601;BME280;28229;48.856;9.088;2023-09-19T12:47:27;97883.88;;;24.85;37.93
42601;BME280;28229;48.856;9.088;2023-09-19T12:50:15;97873.75;;;24.91;38.57
42601;BME280;28229;48.856;9.088;2023-09-19T12:52:52;97875.69;;;25.08;39.76
42601;BME280;28229;48.856;9.088;2023-09-19T12:55:29;97873.00;;;25.17;38.58
42601;BME280;28229;48.856;9.088;2023-09-19T12:58:07;97865.78;;;25.26;38.32
42601;BME280;28229;48.856;9.088;2023-09-19T13:05:55;97866.91;;;25.51;37.13
42601;BME280;28229;48.856;9.088;2023-09-19T13:08:32;97871.47;;;25.68;37.11
42601;BME280;28229;48.856;9.088;2023-09-19T13:11:12;97866.88;;;25.95;38.56
42601;BME280;28229;48.856;9.088;2023-09-19T13:16:29;97866.72;;;26.00;37.51
42601;BME280;28229;48.856;9.088;2023-09-19T13:18:55;97866.25;;;25.80;37.04
42601;BME280;28229;48.856;9.088;2023-09-19T13:21:30;97864.06;;;25.56;36.90
42601;BME280;28229;48.856;9.088;2023-09-19T13:26:45;97856.22;;;25.11;37.72
42601;BME280;28229;48.856;9.088;2023-09-19T13:29:11;97859.75;;;25.29;38.25
42601;BME280;28229;48.856;9.088;2023-09-19T13:31:38;97858.00;;;25.59;37.44
42601;BME280;28229;48.856;9.088;2023-09-19T13:34:07;97848.81;;;25.95;36.49
42601;BME280;28229;48.856;9.088;2023-09-19T13:36:33;97847.09;;;26.38;36.23
42601;BME280;28229;48.856;9.088;2023-09-19T13:38:59;97848.56;;;26.27;36.66
42601;BME280;28229;48.856;9.088;2023-09-19T13:41:26;97837.38;;;26.54;37.21
42601;BME280;28229;48.856;9.088;2023-09-19T13:43:52;97842.69;;;26.72;36.84
42601;BME280;28229;48.856;9.088;2023-09-19T13:46:19;97848.16;;;26.63;36.45
42601;BME280;28229;48.856;9.088;2023-09-19T13:48:51;97844.03;;;26.48;35.81
42601;BME280;28229;48.856;9.088;2023-09-19T13:51:21;97843.19;;;26.27;36.39
42601;BME280;28229;48.856;9.088;2023-09-19T13:53:51;97843.78;;;26.32;36.09
42601;BME280;28229;48.856;9.088;2023-09-19T13:56:17;97846.34;;;26.29;35.69
42601;BME280;28229;48.856;9.088;2023-09-19T13:58:44;97840.78;;;26.34;36.19
42601;BME280;28229;48.856;9.088;2023-09-19T14:01:10;97831.59;;;26.26;35.94
42601;BME280;28229;48.856;9.088;2023-09-19T14:03:41;97834.03;;;26.10;37.14
42601;BME280;28229;48.856;9.088;2023-09-19T14:06:13;97834.00;;;26.28;37.13
42601;BME280;28229;48.856;9.088;2023-09-19T14:08:39;97827.53;;;26.50;36.47
42601;BME280;28229;48.856;9.088;2023-09-19T14:11:06;97825.75;;;26.63;36.10
42601;BME280;28229;48.856;9.088;2023-09-19T14:13:34;97833.25;;;26.48;36.30
42601;BME280;28229;48.856;9.088;2023-09-19T14:16:07;97826.84;;;26.23;37.51
42601;BME280;28229;48.856;9.088;2023-09-19T14:18:35;97825.19;;;26.01;37.68
42601;BME280;28229;48.856;9.088;2023-09-19T14:21:04;97826.44;;;25.77;37.48
42601;BME280;28229;48.856;9.088;2023-09-19T14:23:38;97833.63;;;25.56;38.30
42601;BME280;28229;48.856;9.088;2023-09-19T14:26:04;97829.81;;;25.39;38.78
42601;BME280;28229;48.856;9.088;2023-09-19T14:28:33;97828.84;;;25.18;38.87
42601;BME280;28229;48.856;9.088;2023-09-19T14:31:10;97818.69;;;24.88;38.16
42601;BME280;28229;48.856;9.088;2023-09-19T14:33:36;97821.53;;;24.52;37.67
42601;BME280;28229;48.856;9.088;2023-09-19T14:36:05;97819.97;;;24.51;38.97
42601;BME280;28229;48.856;9.088;2023-09-19T14:38:33;97815.78;;;24.36;38.08
42601;BME280;28229;48.856;9.088;2023-09-19T14:41:03;97823.88;;;24.45;38.78
42601;BME280;28229;48.856;9.088;2023-09-19T14:43:30;97809.16;;;24.33;38.59
42601;BME280;28229;48.856;9.088;2023-09-19T14:48:32;97809.94;;;24.34;39.35
42601;BME280;28229;48.856;9.088;2023-09-19T14:51:02;97807.31;;;24.51;39.31
42601;BME280;28229;48.856;9.088;2023-09-19T14:53:28;97806.72;;;24.63;39.82
42601;BME280;28229;48.856;9.088;2023-09-19T14:55:55;97810.09;;;24.78;38.62
42601;BME280;28229;48.856;9.088;2023-09-19T14:58:21;97810.94;;;24.96;39.00
42601;BME280;28229;48.856;9.088;2023-09-19T15:00:48;97803.34;;;25.06;39.40
42601;BME280;28229;48.856;9.088;2023-09-19T15:03:14;97808.41;;;25.17;39.29
42601;BME280;28229;48.856;9.088;2023-09-19T15:05:40;97813.94;;;25.03;37.79
42601;BME280;28229;48.856;9.088;2023-09-19T15:08:06;97810.41;;;24.67;37.54
42601;BME280;28229;48.856;9.088;2023-09-19T15:10:33;97811.50;;;24.26;38.19
42601;BME280;28229;48.856;9.088;2023-09-19T15:12:59;97813.25;;;24.00;38.38
42601;BME280;28229;48.856;9.088;2023-09-19T15:15:25;97807.22;;;23.71;38.55
42601;BME280;28229;48.856;9.088;2023-09-19T15:17:52;97808.56;;;23.60;38.39
42601;BME280;28229;48.856;9.088;2023-09-19T15:20:18;97807.44;;;23.38;40.10
42601;BME280;28229;48.856;9.088;2023-09-19T15:22:44;97805.19;;;23.32;40.04
42601;BME280;28229;48.856;9.088;2023-09-19T15:25:10;97805.75;;;23.43;39.89
42601;BME280;28229;48.856;9.088;2023-09-19T15:27:36;97807.03;;;23.45;39.91
42601;BME280;28229;48.856;9.088;2023-09-19T15:30:03;97802.44;;;23.46;40.17
42601;BME280;28229;48.856;9.088;2023-09-19T15:32:31;97802.78;;;23.44;39.88
42601;BME280;28229;48.856;9.088;2023-09-19T15:34:57;97797.50;;;23.39;40.59
42601;BME280;28229;48.856;9.088;2023-09-19T15:37:24;97791.78;;;23.32;40.59
42601;BME280;28229;48.856;9.088;2023-09-19T15:39:51;97783.47;;;23.19;39.68
42601;BME280;28229;48.856;9.088;2023-09-19T15:42:18;97789.25;;;22.99;40.69
42601;BME280;28229;48.856;9.088;2023-09-19T15:44:44;97779.34;;;22.86;41.63
42601;BME280;28229;48.856;9.088;2023-09-19T15:47:12;97785.09;;;22.93;41.81
42601;BME280;28229;48.856;9.088;2023-09-19T15:49:39;97786.38;;;22.81;41.63
42601;BME280;28229;48.856;9.088;2023-09-19T15:52:05;97786.34;;;22.73;41.65
42601;BME280;28229;48.856;9.088;2023-09-19T15:54:32;97787.72;;;22.56;43.14
42601;BME280;28229;48.856;9.088;2023-09-19T15:56:59;97785.94;;;22.52;42.70
42601;BME280;28229;48.856;9.088;2023-09-19T15:59:47;97779.00;;;22.51;43.81
42601;BME280;28229;48.856;9.088;2023-09-19T16:02:15;97778.78;;;22.47;43.83
42601;BME280;28229;48.856;9.088;2023-09-19T16:04:43;97786.72;;;22.52;43.98
42601;BME280;28229;48.856;9.088;2023-09-19T16:07:11;97781.97;;;22.49;43.36
42601;BME280;28229;48.856;9.088;2023-09-19T16:09:37;97785.34;;;22.55;43.17
42601;BME280;28229;48.856;9.088;2023-09-19T16:12:03;97782.34;;;22.56;42.95
42601;BME280;28229;48.856;9.088;2023-09-19T16:14:29;97782.16;;;22.53;43.11
42601;BME280;28229;48.856;9.088;2023-09-19T16:16:56;97786.94;;;22.56;44.16
42601;BME280;28229;48.856;9.088;2023-09-19T16:19:24;97776.78;;;22.53;43.65
42601;BME280;28229;48.856;9.088;2023-09-19T16:21:52;97785.94;;;22.52;45.31
42601;BME280;28229;48.856;9.088;2023-09-19T16:24:18;97778.00;;;22.47;45.50
42601;BME280;28229;48.856;9.088;2023-09-19T16:26:47;97776.41;;;22.46;44.44
42601;BME280;28229;48.856;9.088;2023-09-19T16:29:15;97780.00;;;22.41;44.91
42601;BME280;28229;48.856;9.088;2023-09-19T16:31:41;97775.22;;;22.38;44.66
42601;BME280;28229;48.856;9.088;2023-09-19T16:34:07;97777.22;;;22.32;45.04
42601;BME280;28229;48.856;9.088;2023-09-19T16:36:35;97774.53;;;22.32;45.31
42601;BME280;28229;48.856;9.088;2023-09-19T16:39:01;97777.22;;;22.32;46.56
42601;BME280;28229;48.856;9.088;2023-09-19T16:41:29;97770.06;;;22.28;46.04
42601;BME280;28229;48.856;9.088;2023-09-19T16:43:56;97773.28;;;22.24;46.89
42601;BME280;28229;48.856;9.088;2023-09-19T16:46:24;97774.00;;;22.16;47.01
42601;BME280;28229;48.856;9.088;2023-09-19T16:48:50;97766.94;;;22.06;47.04
42601;BME280;28229;48.856;9.088;2023-09-19T16:51:17;97770.22;;;22.03;48.51
42601;BME280;28229;48.856;9.088;2023-09-19T16:53:44;97770.81;;;22.00;47.90
42601;BME280;28229;48.856;9.088;2023-09-19T16:56:15;97768.00;;;21.92;48.68
42601;BME280;28229;48.856;9.088;2023-09-19T16:58:45;97775.34;;;21.86;48.77
42601;BME280;28229;48.856;9.088;2023-09-19T17:01:14;97769.00;;;21.82;50.28
42601;BME280;28229;48.856;9.088;2023-09-19T17:03:41;97767.97;;;21.78;50.18
42601;BME280;28229;48.856;9.088;2023-09-19T17:06:08;97766.78;;;21.70;49.86
42601;BME280;28229;48.856;9.088;2023-09-19T17:08:38;97772.50;;;21.63;49.79
42601;BME280;28229;48.856;9.088;2023-09-19T17:11:06;97766.94;;;21.60;50.95
42601;BME280;28229;48.856;9.088;2023-09-19T17:13:35;97772.38;;;21.55;51.46
42601;BME280;28229;48.856;9.088;2023-09-19T17:16:06;97767.97;;;21.45;50.70
42601;BME280;28229;48.856;9.088;2023-09-19T17:18:37;97772.81;;;21.43;51.71
42601;BME280;28229;48.856;9.088;2023-09-19T17:21:05;97772.97;;;21.33;51.75
42601;BME280;28229;48.856;9.088;2023-09-19T17:23:33;97779.47;;;21.26;52.27
42601;BME280;28229;48.856;9.088;2023-09-19T17:26:09;97777.47;;;21.18;52.69
42601;BME280;28229;48.856;9.088;2023-09-19T17:28:41;97774.38;;;21.11;53.54
42601;BME280;28229;48.856;9.088;2023-09-19T17:31:15;97781.47;;;21.02;54.03
42601;BME280;28229;48.856;9.088;2023-09-19T17:33:43;97777.53;;;20.94;54.21
42601;BME280;28229;48.856;9.088;2023-09-19T17:36:11;97777.31;;;20.90;54.78
42601;BME280;28229;48.856;9.088;2023-09-19T17:38:41;97779.69;;;20.73;55.40
42601;BME280;28229;48.856;9.088;2023-09-19T17:41:07;97785.66;;;20.65;55.45
42601;BME280;28229;48.856;9.088;2023-09-19T17:43:37;97789.75;;;20.57;54.77
42601;BME280;28229;48.856;9.088;2023-09-19T17:46:08;97783.16;;;20.49;55.09
42601;BME280;28229;48.856;9.088;2023-09-19T17:48:43;97781.41;;;20.40;55.52
42601;BME280;28229;48.856;9.088;2023-09-19T17:51:10;97786.00;;;20.34;55.98
42601;BME280;28229;48.856;9.088;2023-09-19T17:53:37;97790.31;;;20.30;56.26
42601;BME280;28229;48.856;9.088;2023-09-19T17:56:05;97797.59;;;20.24;56.87
42601;BME280;28229;48.856;9.088;2023-09-19T17:58:32;97795.25;;;20.17;56.66
42601;BME280;28229;48.856;9.088;2023-09-19T18:01:07;97802.00;;;20.10;56.99
42601;BME280;28229;48.856;9.088;2023-09-19T18:03:35;97805.28;;;20.02;57.31